createdAt,value
2022-08-23T00:00:27.413Z,18.10
2022-08-23T00:03:01.275Z,18.00
2022-08-23T00:05:33.731Z,17.90
2022-08-23T00:08:03.838Z,18.00
2022-08-23T00:10:41.065Z,18.00
2022-08-23T00:13:10.681Z,18.10
2022-08-23T00:15:37.860Z,18.10
2022-08-23T00:18:06.475Z,18.20
2022-08-23T00:20:35.153Z,18.10
2022-08-23T00:23:05.201Z,18.10
2022-08-23T00:25:44.131Z,18.10
2022-08-23T00:28:15.469Z,18.00
2022-08-23T00:30:44.175Z,18.00
2022-08-23T00:33:21.838Z,17.90
2022-08-23T00:35:50.996Z,17.90
2022-08-23T00:38:34.367Z,17.90
2022-08-23T00:41:09.720Z,17.90
2022-08-23T00:44:02.330Z,17.80
2022-08-23T00:47:21.810Z,17.90
2022-08-23T00:50:19.552Z,18.00
2022-08-23T00:53:13.282Z,17.90
2022-08-23T00:55:50.722Z,17.80
2022-08-23T00:58:32.605Z,17.80
2022-08-23T01:01:03.086Z,17.70
2022-08-23T01:03:42.090Z,17.60
2022-08-23T01:06:50.260Z,17.70
2022-08-23T01:09:23.509Z,17.80
2022-08-23T01:12:18.513Z,17.90
2022-08-23T01:15:03.442Z,17.70
2022-08-23T01:17:47.833Z,17.60
2022-08-23T01:20:27.022Z,17.60
2022-08-23T01:22:59.141Z,17.60
2022-08-23T01:25:31.940Z,17.70
2022-08-23T01:28:08.875Z,17.80
2022-08-23T01:30:40.067Z,17.80
2022-08-23T01:33:07.634Z,17.80
2022-08-23T01:35:40.256Z,17.80
2022-08-23T01:38:08.590Z,17.80
2022-08-23T01:40:36.504Z,17.80
2022-08-23T01:43:04.920Z,17.90
2022-08-23T01:45:33.807Z,17.80
2022-08-23T01:48:02.361Z,17.80
2022-08-23T01:50:30.942Z,17.80
2022-08-23T01:52:58.762Z,17.80
2022-08-23T01:55:27.175Z,17.70
2022-08-23T01:57:57.550Z,17.70
2022-08-23T02:00:30.387Z,17.60
2022-08-23T02:02:59.466Z,17.60
2022-08-23T02:05:28.112Z,17.60
2022-08-23T02:07:55.796Z,17.60
2022-08-23T02:10:23.791Z,17.60
2022-08-23T02:12:50.957Z,17.60
2022-08-23T02:15:19.005Z,17.50
2022-08-23T02:17:46.837Z,17.40
2022-08-23T02:20:14.687Z,17.40
2022-08-23T02:22:42.007Z,17.40
2022-08-23T02:25:09.620Z,17.50
2022-08-23T02:27:36.720Z,17.40
2022-08-23T02:30:05.203Z,17.40
2022-08-23T02:32:32.261Z,17.40
2022-08-23T02:35:04.946Z,17.30
2022-08-23T02:37:33.992Z,17.40
2022-08-23T02:40:01.145Z,17.40
2022-08-23T02:42:29.725Z,17.40
2022-08-23T02:44:56.869Z,17.30
2022-08-23T02:47:24.422Z,17.30
2022-08-23T02:49:52.270Z,17.40
2022-08-23T02:52:19.436Z,17.30
2022-08-23T02:54:46.549Z,17.30
2022-08-23T02:57:13.676Z,17.30
2022-08-23T02:59:40.790Z,17.20
2022-08-23T03:02:09.497Z,17.20
2022-08-23T03:04:36.685Z,17.20
2022-08-23T03:07:04.716Z,16.90
2022-08-23T03:09:32.201Z,16.90
2022-08-23T03:11:59.406Z,16.90
2022-08-23T03:14:28.183Z,17.00
2022-08-23T03:16:58.415Z,17.10
2022-08-23T03:19:25.589Z,17.10
2022-08-23T03:21:52.681Z,17.10
2022-08-23T03:24:19.806Z,17.10
2022-08-23T03:26:47.016Z,17.20
2022-08-23T03:29:15.163Z,17.20
2022-08-23T03:31:42.266Z,17.10
2022-08-23T03:34:09.756Z,17.10
2022-08-23T03:36:36.972Z,17.00
2022-08-23T03:39:05.460Z,17.00
2022-08-23T03:41:32.717Z,17.00
2022-08-23T03:43:59.841Z,16.90
2022-08-23T03:46:29.052Z,16.90
2022-08-23T03:49:01.466Z,16.90
2022-08-23T03:51:30.681Z,16.90
2022-08-23T03:53:58.501Z,16.90
2022-08-23T03:56:36.293Z,16.90
2022-08-23T03:59:08.905Z,16.90
2022-08-23T04:01:36.730Z,16.80
2022-08-23T04:04:04.535Z,16.80
2022-08-23T04:06:33.250Z,16.80
2022-08-23T04:09:00.757Z,16.90
2022-08-23T04:11:28.241Z,16.80
2022-08-23T04:13:55.541Z,16.80
2022-08-23T04:16:22.704Z,16.80
2022-08-23T04:18:49.886Z,16.80
2022-08-23T04:21:22.574Z,16.80
2022-08-23T04:23:50.347Z,16.70
2022-08-23T04:26:17.382Z,16.60
2022-08-23T04:28:44.446Z,16.60
2022-08-23T04:31:11.506Z,16.50
2022-08-23T04:33:40.292Z,16.50
2022-08-23T04:36:08.166Z,16.50
2022-08-23T04:38:35.246Z,16.50
2022-08-23T04:41:20.920Z,16.40
2022-08-23T04:43:48.441Z,16.50
2022-08-23T04:46:16.600Z,16.50
2022-08-23T04:48:45.106Z,16.50
2022-08-23T04:51:13.250Z,16.40
2022-08-23T04:53:40.883Z,16.40
2022-08-23T04:56:09.079Z,16.40
2022-08-23T04:58:38.856Z,16.30
2022-08-23T05:01:08.883Z,16.30
2022-08-23T05:03:36.642Z,16.30
2022-08-23T05:06:05.606Z,16.40
2022-08-23T05:08:33.251Z,16.30
2022-08-23T05:11:09.311Z,16.30
2022-08-23T05:13:38.108Z,16.40
2022-08-23T05:16:06.927Z,16.40
2022-08-23T05:18:34.439Z,16.40
2022-08-23T05:21:02.322Z,16.40
2022-08-23T05:23:31.837Z,16.40
2022-08-23T05:26:00.951Z,16.40
2022-08-23T05:28:33.586Z,16.30
2022-08-23T05:31:02.333Z,16.30
2022-08-23T05:33:31.193Z,16.40
2022-08-23T05:35:58.771Z,16.40
2022-08-23T05:38:26.783Z,16.40
2022-08-23T05:40:59.903Z,16.40
2022-08-23T05:43:27.201Z,16.50
2022-08-23T05:46:22.046Z,16.50
2022-08-23T05:48:54.976Z,16.30
2022-08-23T05:51:31.044Z,16.10
2022-08-23T05:54:05.141Z,16.10
2022-08-23T05:56:39.646Z,16.20
2022-08-23T05:59:12.445Z,16.20
2022-08-23T06:01:41.108Z,16.30
2022-08-23T06:04:12.652Z,16.40
2022-08-23T06:06:41.686Z,16.50
2022-08-23T06:09:12.682Z,16.50
2022-08-23T06:11:40.479Z,16.50
2022-08-23T06:14:09.484Z,16.60
2022-08-23T06:16:40.363Z,16.60
2022-08-23T06:19:09.096Z,16.60
2022-08-23T06:21:37.437Z,16.60
2022-08-23T06:24:05.363Z,16.70
2022-08-23T06:26:35.996Z,16.70
2022-08-23T06:29:08.469Z,16.70
2022-08-23T06:31:45.535Z,16.60
2022-08-23T06:34:18.364Z,16.70
2022-08-23T06:36:52.721Z,16.70
2022-08-23T06:39:22.336Z,16.80
2022-08-23T06:41:49.872Z,16.80
2022-08-23T06:44:18.566Z,16.90
2022-08-23T06:46:48.147Z,16.90
2022-08-23T06:49:15.324Z,16.90
2022-08-23T06:51:45.503Z,17.00
2022-08-23T06:54:15.242Z,17.00
2022-08-23T06:56:44.029Z,17.00
2022-08-23T06:59:12.314Z,17.00
2022-08-23T07:01:46.825Z,17.00
2022-08-23T07:04:16.921Z,17.00
2022-08-23T07:06:43.986Z,17.10
2022-08-23T07:09:11.126Z,17.10
2022-08-23T07:11:39.587Z,17.20
2022-08-23T07:14:10.770Z,17.20
2022-08-23T07:16:44.615Z,17.20
2022-08-23T07:19:12.507Z,17.20
2022-08-23T07:21:39.640Z,17.20
2022-08-23T07:24:06.967Z,17.30
2022-08-23T07:26:36.320Z,17.30
2022-08-23T07:29:06.239Z,17.30
2022-08-23T07:31:38.453Z,17.30
2022-08-23T07:34:06.162Z,17.30
2022-08-23T07:36:37.366Z,17.40
2022-08-23T07:39:06.587Z,17.50
2022-08-23T07:41:35.297Z,17.60
2022-08-23T07:44:04.001Z,17.70
2022-08-23T07:46:33.329Z,17.80
2022-08-23T07:49:02.079Z,17.90
2022-08-23T07:51:32.340Z,17.90
2022-08-23T07:54:01.426Z,18.10
2022-08-23T07:56:29.301Z,18.20
2022-08-23T07:58:56.461Z,18.20
2022-08-23T08:01:28.301Z,18.30
2022-08-23T08:03:58.121Z,18.40
2022-08-23T08:06:42.188Z,18.50
2022-08-23T08:09:10.566Z,18.60
2022-08-23T08:11:37.936Z,18.70
2022-08-23T08:14:08.679Z,18.80
2022-08-23T08:16:42.658Z,18.90
2022-08-23T08:19:11.704Z,19.00
2022-08-23T08:21:41.916Z,19.20
2022-08-23T08:24:10.708Z,19.30
2022-08-23T08:26:37.976Z,19.50
2022-08-23T08:29:06.196Z,19.60
2022-08-23T08:31:34.627Z,19.80
2022-08-23T08:34:01.701Z,19.80
2022-08-23T08:36:40.095Z,19.90
2022-08-23T08:39:13.565Z,20.00
2022-08-23T08:42:24.066Z,20.00
2022-08-23T08:45:09.599Z,20.10
2022-08-23T08:48:11.359Z,20.10
2022-08-23T08:50:44.766Z,20.10
2022-08-23T08:53:20.828Z,20.10
2022-08-23T08:55:57.296Z,20.10
2022-08-23T08:58:41.252Z,20.20
2022-08-23T09:01:09.079Z,20.30
2022-08-23T09:03:36.631Z,20.30
2022-08-23T09:06:11.480Z,20.30
2022-08-23T09:09:16.120Z,20.30
2022-08-23T09:12:08.627Z,20.30
2022-08-23T09:14:47.361Z,20.30
2022-08-23T09:17:49.720Z,20.30
2022-08-23T09:20:20.777Z,20.30
2022-08-23T09:22:51.445Z,20.30
2022-08-23T09:25:19.046Z,20.40
2022-08-23T09:27:46.189Z,20.50
2022-08-23T09:30:15.838Z,20.60
2022-08-23T09:32:46.760Z,20.50
2022-08-23T09:35:19.877Z,20.60
2022-08-23T09:37:59.079Z,20.70
2022-08-23T09:40:45.260Z,20.80
2022-08-23T09:43:26.208Z,20.70
2022-08-23T09:45:53.226Z,20.60
2022-08-23T09:48:40.827Z,20.70
2022-08-23T09:51:18.258Z,20.80
2022-08-23T09:53:50.359Z,20.50
2022-08-23T09:56:24.871Z,20.20
2022-08-23T09:58:54.031Z,20.30
2022-08-23T10:01:27.716Z,20.60
2022-08-23T10:04:17.030Z,20.90
2022-08-23T10:06:46.496Z,20.70
2022-08-23T10:09:32.801Z,20.70
2022-08-23T10:12:01.921Z,20.90
2022-08-23T10:14:33.083Z,21.00
2022-08-23T10:17:10.425Z,21.10
2022-08-23T10:19:40.159Z,21.30
2022-08-23T10:22:10.905Z,21.40
2022-08-23T10:24:40.648Z,21.50
2022-08-23T10:27:48.558Z,21.50
2022-08-23T10:30:21.180Z,21.50
2022-08-23T10:32:58.701Z,21.40
2022-08-23T10:35:46.166Z,21.30
2022-08-23T10:38:34.266Z,21.20
2022-08-23T10:41:55.561Z,21.20
2022-08-23T10:44:39.956Z,21.10
2022-08-23T10:47:28.182Z,20.80
2022-08-23T10:49:56.255Z,20.70
2022-08-23T10:52:34.757Z,20.50
2022-08-23T10:55:34.865Z,20.50
2022-08-23T10:58:06.484Z,20.50
2022-08-23T11:00:35.641Z,20.60
2022-08-23T11:03:45.079Z,20.60
2022-08-23T11:06:36.457Z,20.60
2022-08-23T11:09:18.376Z,20.40
2022-08-23T11:11:49.880Z,20.40
2022-08-23T11:14:29.158Z,20.30
2022-08-23T11:17:03.803Z,20.30
2022-08-23T11:19:52.886Z,20.40
2022-08-23T11:22:54.242Z,20.60
2022-08-23T11:25:21.236Z,20.30
2022-08-23T11:27:48.639Z,19.80
2022-08-23T11:30:50.211Z,19.50
2022-08-23T11:33:37.256Z,19.40
2022-08-23T11:36:10.345Z,19.20
2022-08-23T11:38:49.881Z,19.50
2022-08-23T11:41:20.166Z,19.60
2022-08-23T11:43:54.476Z,19.70
2022-08-23T11:46:27.190Z,19.90
2022-08-23T11:49:31.057Z,20.10
2022-08-23T11:52:21.618Z,20.30
2022-08-23T11:55:09.706Z,20.40
2022-08-23T11:58:26.951Z,20.40
2022-08-23T12:01:09.256Z,20.40
2022-08-23T12:04:09.593Z,20.60
2022-08-23T12:06:57.655Z,20.70
2022-08-23T12:09:24.642Z,20.50
2022-08-23T12:11:57.754Z,20.70
2022-08-23T12:14:43.275Z,20.80
2022-08-23T12:17:13.284Z,20.90
2022-08-23T12:19:59.359Z,20.90
2022-08-23T12:22:34.279Z,20.90
2022-08-23T12:25:05.450Z,20.90
2022-08-23T12:28:07.775Z,20.80
2022-08-23T12:30:56.835Z,20.90
2022-08-23T12:33:35.841Z,20.90
2022-08-23T12:36:16.384Z,20.90
2022-08-23T12:38:58.791Z,20.90
2022-08-23T12:41:33.446Z,20.90
2022-08-23T12:44:08.118Z,21.00
2022-08-23T12:46:41.627Z,21.10
2022-08-23T12:49:22.831Z,21.10
2022-08-23T12:51:53.105Z,21.10
2022-08-23T12:54:33.681Z,21.00
2022-08-23T12:57:01.030Z,21.00
2022-08-23T12:59:31.690Z,20.90
2022-08-23T13:02:00.395Z,20.80
2022-08-23T13:04:28.840Z,20.80
2022-08-23T13:07:01.229Z,20.80
2022-08-23T13:09:37.850Z,20.90
2022-08-23T13:12:07.515Z,20.80
2022-08-23T13:14:54.399Z,20.90
2022-08-23T13:17:27.644Z,20.80
2022-08-23T13:20:13.571Z,20.80
2022-08-23T13:22:57.086Z,20.90
2022-08-23T13:25:31.577Z,20.90
2022-08-23T13:28:25.346Z,20.90
2022-08-23T13:31:08.577Z,20.90
2022-08-23T13:33:36.200Z,21.00
2022-08-23T13:36:15.905Z,21.10
2022-08-23T13:38:44.446Z,21.20
2022-08-23T13:41:29.352Z,21.30
2022-08-23T13:43:56.519Z,21.40
2022-08-23T13:46:33.505Z,21.50
2022-08-23T13:49:12.021Z,21.50
2022-08-23T13:51:45.815Z,21.50
2022-08-23T13:54:15.485Z,21.60
2022-08-23T13:56:55.711Z,21.60
2022-08-23T13:59:31.351Z,21.60
2022-08-23T14:02:58.428Z,21.60
2022-08-23T14:05:25.571Z,21.60
2022-08-23T14:07:53.178Z,21.70
2022-08-23T14:10:22.518Z,21.70
2022-08-23T14:12:53.040Z,21.70
2022-08-23T14:15:53.964Z,21.70
2022-08-23T14:18:08.272Z,21.60
2022-08-23T14:20:44.293Z,21.60
2022-08-23T14:23:12.811Z,21.50
2022-08-23T14:25:40.158Z,21.50
2022-08-23T14:28:07.156Z,21.40
2022-08-23T14:30:36.814Z,21.40
2022-08-23T14:33:04.868Z,21.30
2022-08-23T14:35:31.971Z,21.20
2022-08-23T14:38:03.743Z,21.10
2022-08-23T14:40:31.699Z,21.00
2022-08-23T14:42:58.980Z,20.70
2022-08-23T14:45:26.293Z,20.50
2022-08-23T14:47:53.542Z,20.60
2022-08-23T14:50:21.405Z,20.60
2022-08-23T14:52:48.592Z,20.50
2022-08-23T14:55:16.072Z,20.50
2022-08-23T14:57:43.472Z,20.50
2022-08-23T15:00:15.154Z,20.40
2022-08-23T15:02:47.548Z,20.40
2022-08-23T15:05:15.932Z,20.40
2022-08-23T15:07:43.426Z,20.40
2022-08-23T15:10:49.648Z,20.40
2022-08-23T15:13:20.591Z,20.40
2022-08-23T15:15:46.538Z,20.50
2022-08-23T15:18:17.101Z,20.60
2022-08-23T15:20:45.560Z,20.60
2022-08-23T15:23:13.122Z,20.60
2022-08-23T15:25:42.856Z,20.60
2022-08-23T15:28:16.087Z,20.60
2022-08-23T15:30:44.270Z,20.60
2022-08-23T15:33:11.478Z,20.60
2022-08-23T15:35:45.481Z,20.60
2022-08-23T15:38:15.520Z,20.60
2022-08-23T15:40:42.994Z,20.60
2022-08-23T15:43:10.064Z,20.50
2022-08-23T15:45:38.269Z,20.50
2022-08-23T15:48:15.643Z,20.40
2022-08-23T15:50:46.075Z,20.50
2022-08-23T15:53:13.946Z,20.40
2022-08-23T15:55:42.392Z,20.50
2022-08-23T15:58:20.382Z,20.60
2022-08-23T16:00:48.778Z,20.60
2022-08-23T16:03:20.299Z,20.50
2022-08-23T16:05:51.203Z,20.50
2022-08-23T16:08:20.194Z,20.50
2022-08-23T16:10:47.476Z,20.60
2022-08-23T16:13:14.823Z,20.50
2022-08-23T16:15:41.937Z,20.40
2022-08-23T16:18:09.117Z,20.40
2022-08-23T16:20:36.677Z,20.40
2022-08-23T16:23:04.803Z,20.30
2022-08-23T16:25:31.957Z,20.20
2022-08-23T16:28:00.381Z,20.30
2022-08-23T16:30:29.254Z,20.20
2022-08-23T16:32:57.115Z,20.30
2022-08-23T16:35:24.712Z,20.30
2022-08-23T16:37:51.904Z,20.20
2022-08-23T16:40:19.032Z,20.30
2022-08-23T16:42:46.106Z,20.30
2022-08-23T16:45:13.101Z,20.30
2022-08-23T16:47:44.866Z,20.20
2022-08-23T16:50:12.952Z,20.20
2022-08-23T16:52:40.168Z,20.10
2022-08-23T16:55:11.039Z,20.10
2022-08-23T16:57:38.437Z,20.00
2022-08-23T17:00:08.462Z,19.90
2022-08-23T17:02:37.955Z,19.90
2022-08-23T17:05:09.183Z,20.00
2022-08-23T17:07:36.226Z,20.00
2022-08-23T17:10:04.359Z,20.00
2022-08-23T17:12:32.057Z,20.00
2022-08-23T17:14:59.421Z,20.00
2022-08-23T17:17:26.661Z,19.90
2022-08-23T17:19:53.677Z,19.90
2022-08-23T17:22:20.741Z,19.90
2022-08-23T17:24:47.803Z,19.90
2022-08-23T17:27:20.323Z,19.90
2022-08-23T17:29:47.365Z,19.90
2022-08-23T17:32:14.601Z,20.00
2022-08-23T17:34:42.080Z,20.00
2022-08-23T17:37:21.437Z,20.00
2022-08-23T17:39:49.989Z,20.00
2022-08-23T17:42:18.182Z,20.00
2022-08-23T17:44:45.671Z,20.00
2022-08-23T17:47:15.922Z,19.90
2022-08-23T17:49:44.679Z,19.90
2022-08-23T17:52:13.046Z,19.80
2022-08-23T17:54:41.224Z,19.90
2022-08-23T17:57:11.073Z,19.90
2022-08-23T17:59:38.596Z,19.80
2022-08-23T18:02:06.846Z,19.80
2022-08-23T18:04:34.250Z,19.70
2022-08-23T18:07:02.225Z,19.70
2022-08-23T18:09:29.306Z,19.70
2022-08-23T18:11:56.542Z,19.80
2022-08-23T18:14:24.474Z,19.60
2022-08-23T18:16:51.767Z,19.60
2022-08-23T18:19:19.012Z,19.60
2022-08-23T18:21:46.839Z,19.50
2022-08-23T18:24:14.346Z,19.50
2022-08-23T18:27:00.247Z,19.60
2022-08-23T18:29:29.136Z,19.60
2022-08-23T18:31:56.313Z,19.50
2022-08-23T18:34:24.351Z,19.40
2022-08-23T18:36:51.586Z,19.30
2022-08-23T18:39:31.146Z,19.30
2022-08-23T18:42:01.205Z,19.30
2022-08-23T18:44:29.422Z,19.20
2022-08-23T18:46:56.696Z,19.20
2022-08-23T18:49:24.076Z,19.20
2022-08-23T18:51:51.226Z,19.20
2022-08-23T18:54:18.566Z,19.20
2022-08-23T18:56:45.748Z,19.20
2022-08-23T18:59:13.118Z,19.20
2022-08-23T19:01:41.427Z,19.20
2022-08-23T19:04:10.388Z,19.10
2022-08-23T19:06:37.586Z,19.00
2022-08-23T19:09:12.814Z,19.00
2022-08-23T19:11:41.492Z,19.00
2022-08-23T19:14:11.050Z,19.00
2022-08-23T19:16:39.573Z,19.00
2022-08-23T19:19:07.385Z,19.10
2022-08-23T19:21:34.457Z,19.10
2022-08-23T19:24:01.997Z,19.10
2022-08-23T19:26:32.824Z,19.10
2022-08-23T19:29:03.787Z,19.20
2022-08-23T19:31:35.288Z,19.20
2022-08-23T19:34:06.198Z,19.20
2022-08-23T19:36:46.508Z,19.20
2022-08-23T19:39:17.956Z,19.10
2022-08-23T19:41:46.406Z,19.10
2022-08-23T19:44:13.958Z,19.10
2022-08-23T19:46:44.963Z,19.10
2022-08-23T19:49:14.808Z,19.10
2022-08-23T19:51:42.858Z,19.00
2022-08-23T19:54:12.854Z,18.70
2022-08-23T19:56:47.056Z,18.50
2022-08-23T19:59:19.691Z,18.40
2022-08-23T20:01:51.288Z,18.40
2022-08-23T20:04:19.760Z,18.40
2022-08-23T20:06:47.786Z,18.00
2022-08-23T20:09:15.578Z,17.50
2022-08-23T20:11:42.696Z,17.20
2022-08-23T20:14:10.207Z,17.20
2022-08-23T20:16:40.968Z,17.40
2022-08-23T20:19:10.276Z,17.60
2022-08-23T20:21:39.443Z,17.80
2022-08-23T20:24:08.017Z,17.90
2022-08-23T20:26:47.121Z,18.10
2022-08-23T20:29:22.624Z,18.20
2022-08-23T20:32:00.363Z,18.30
2022-08-23T20:34:28.232Z,18.20
2022-08-23T20:36:56.521Z,18.10
2022-08-23T20:39:24.910Z,18.00
2022-08-23T20:41:53.272Z,18.00
2022-08-23T20:44:25.154Z,18.00
2022-08-23T20:46:54.889Z,18.00
2022-08-23T20:49:24.814Z,17.90
2022-08-23T20:51:52.059Z,17.90
2022-08-23T20:54:19.736Z,18.00
2022-08-23T20:56:49.582Z,18.00
2022-08-23T20:59:17.056Z,18.10
2022-08-23T21:01:44.840Z,18.10
2022-08-23T21:04:12.843Z,18.10
2022-08-23T21:06:46.341Z,18.10
2022-08-23T21:09:17.360Z,18.10
2022-08-23T21:11:45.252Z,18.10
2022-08-23T21:14:15.218Z,18.10
2022-08-23T21:16:43.483Z,18.10
2022-08-23T21:19:10.717Z,18.10
2022-08-23T21:24:24.412Z,17.90
2022-08-23T21:27:00.641Z,17.90
2022-08-23T21:29:38.852Z,17.90
2022-08-23T21:32:09.337Z,17.90
2022-08-23T21:34:46.187Z,17.90
2022-08-23T21:37:21.857Z,17.90
2022-08-23T21:39:51.591Z,17.80
2022-08-23T21:42:40.101Z,17.70
2022-08-23T21:45:07.954Z,17.70
2022-08-23T21:47:38.501Z,17.60
2022-08-23T21:50:07.249Z,17.60
2022-08-23T21:52:36.937Z,17.60
2022-08-23T21:55:13.937Z,17.60
2022-08-23T21:57:47.611Z,17.60
2022-08-23T22:00:19.368Z,17.60
2022-08-23T22:02:57.018Z,17.60
2022-08-23T22:05:27.040Z,17.60
2022-08-23T22:07:55.253Z,17.60
2022-08-23T22:10:24.028Z,17.60
2022-08-23T22:12:56.097Z,17.50
2022-08-23T22:15:26.578Z,17.40
2022-08-23T22:17:57.783Z,17.40
2022-08-23T22:20:26.278Z,17.40
2022-08-23T22:22:56.160Z,17.40
2022-08-23T22:25:24.387Z,17.30
2022-08-23T22:27:53.415Z,17.40
2022-08-23T22:30:23.797Z,17.30
2022-08-23T22:32:53.280Z,17.30
2022-08-23T22:35:30.133Z,17.30
2022-08-23T22:38:13.677Z,17.30
2022-08-23T22:40:56.825Z,17.20
2022-08-23T22:43:33.338Z,17.10
2022-08-23T22:46:04.959Z,17.10
2022-08-23T22:48:41.538Z,17.10
2022-08-23T22:51:28.133Z,17.10
2022-08-23T22:54:02.600Z,17.10
2022-08-23T22:56:40.428Z,17.00
2022-08-23T22:59:18.380Z,16.90
2022-08-23T23:02:16.252Z,16.90
2022-08-23T23:07:47.513Z,16.90
2022-08-23T23:10:15.738Z,16.90
2022-08-23T23:12:46.873Z,16.90
2022-08-23T23:15:17.840Z,16.90
2022-08-23T23:17:48.593Z,16.90
2022-08-23T23:20:39.057Z,16.90
2022-08-23T23:23:16.118Z,16.80
2022-08-23T23:26:09.321Z,16.90
2022-08-23T23:28:39.443Z,17.00
2022-08-23T23:31:07.935Z,16.90
2022-08-23T23:33:40.144Z,16.70
2022-08-23T23:36:08.828Z,16.60
2022-08-23T23:38:39.383Z,16.50
2022-08-23T23:41:09.203Z,16.50
2022-08-23T23:43:38.734Z,16.50
2022-08-23T23:46:12.666Z,16.50
2022-08-23T23:48:52.944Z,16.60
2022-08-23T23:51:25.478Z,16.60
2022-08-23T23:53:56.681Z,16.60
2022-08-23T23:56:33.557Z,16.60
2022-08-23T23:59:06.303Z,16.60
